Time;durP1;ratioP1;P1;durP2;ratioP2;P2;SDS_P1;SDS_P2;PMS_P1;PMS_P2;Temp;Humidity;BMP_temperature;BMP_pressure;BME280_temperature;BME280_humidity;BME280_pressure;Samples;Min_cycle;Max_cycle;Signal;HPM_P1;HPM_P2
2022/12/27 00:00:13;;;;;;;11.25;5.55;;;;;;;1.08;96.33;100466.84;1798978;79;21127;-60
2022/12/27 00:02:44;;;;;;;9.48;4.87;;;;;;;1.10;96.40;100455.91;1799058;80;21091;-61
2022/12/27 00:05:14;;;;;;;11.30;5.50;;;;;;;1.10;96.38;100452.72;1718735;83;21152;-60
2022/12/27 00:07:43;;;;;;;12.07;5.90;;;;;;;1.10;96.47;100450.02;1799123;80;21535;-62
2022/12/27 00:10:12;;;;;;;10.68;5.42;;;;;;;1.08;96.57;100451.14;1799161;80;21178;-60
2022/12/27 00:12:41;;;;;;;12.85;6.30;;;;;;;1.12;96.74;100462.02;1799113;80;21123;-60
2022/12/27 00:15:09;;;;;;;12.35;5.95;;;;;;;1.14;96.84;100462.74;1718370;82;21123;-60
2022/12/27 00:17:41;;;;;;;9.30;5.05;;;;;;;1.18;96.89;100454.73;1798930;80;21202;-60
2022/12/27 00:20:10;;;;;;;11.93;5.05;;;;;;;1.18;96.82;100447.98;1799025;79;21538;-60
2022/12/27 00:22:40;;;;;;;11.35;5.42;;;;;;;1.19;96.83;100445.65;1798831;80;21100;-60
2022/12/27 00:25:09;;;;;;;9.13;4.92;;;;;;;1.20;96.91;100437.42;1799036;80;21111;-60
2022/12/27 00:27:38;;;;;;;10.45;5.17;;;;;;;1.20;96.90;100440.11;1718376;83;21182;-60
2022/12/27 00:30:09;;;;;;;11.85;5.28;;;;;;;1.21;96.96;100434.22;1799103;80;21531;-59
2022/12/27 00:32:40;;;;;;;9.88;5.00;;;;;;;1.22;96.93;100437.28;1700199;83;21195;-61
2022/12/27 00:35:09;;;;;;;8.78;4.60;;;;;;;1.23;96.88;100429.55;1799142;80;21127;-59
2022/12/27 00:37:38;;;;;;;11.28;5.22;;;;;;;1.23;96.89;100421.45;1706524;82;21170;-59
2022/12/27 00:40:09;;;;;;;10.20;5.05;;;;;;;1.23;96.94;100407.45;1779869;80;21588;-60
2022/12/27 00:42:39;;;;;;;8.33;4.47;;;;;;;1.26;97.01;100412.58;1779961;80;21177;-60
2022/12/27 00:45:10;;;;;;;9.05;4.75;;;;;;;1.28;97.04;100411.09;1743386;82;21171;-59
2022/12/27 00:47:39;;;;;;;9.18;4.87;;;;;;;1.29;96.97;100410.10;1716857;83;21174;-60
2022/12/27 00:50:09;;;;;;;9.65;4.85;;;;;;;1.30;96.99;100396.11;1717344;83;21135;-60
2022/12/27 00:52:38;;;;;;;9.45;4.83;;;;;;;1.32;96.97;100397.70;1743340;82;21130;-60
2022/12/27 00:55:08;;;;;;;8.78;5.05;;;;;;;1.33;96.98;100401.27;1780017;80;21099;-62
2022/12/27 00:57:39;;;;;;;10.38;5.17;;;;;;;1.33;97.06;100400.77;1750461;80;21730;-62
2022/12/27 01:00:11;;;;;;;9.23;5.28;;;;;;;1.33;97.12;100395.37;1780067;80;21530;-62
2022/12/27 01:02:40;;;;;;;8.28;4.28;;;;;;;1.36;97.15;100400.98;1750606;80;21166;-62
2022/12/27 01:05:11;;;;;;;9.25;4.40;;;;;;;1.38;97.15;100400.34;1663267;85;21169;-61
2022/12/27 01:07:40;;;;;;;8.75;4.53;;;;;;;1.37;97.16;100386.50;1685342;85;21612;-62
2022/12/27 01:10:11;;;;;;;9.03;4.58;;;;;;;1.38;97.19;100391.75;1685597;85;21190;-62
2022/12/27 01:12:40;;;;;;;8.28;4.70;;;;;;;1.39;97.25;100394.81;1685373;85;21624;-61
2022/12/27 01:15:11;;;;;;;9.50;4.90;;;;;;;1.40;97.30;100391.62;1685478;85;21649;-62
2022/12/27 01:17:41;;;;;;;9.15;5.00;;;;;;;1.40;97.30;100385.72;1685042;85;21627;-60
2022/12/27 01:20:10;;;;;;;9.88;4.45;;;;;;;1.39;97.32;100384.02;1685197;85;21460;-62
2022/12/27 01:22:40;;;;;;;8.80;4.87;;;;;;;1.39;97.42;100373.22;1685359;85;21601;-59
2022/12/27 01:25:09;;;;;;;8.70;4.62;;;;;;;1.41;97.54;100377.13;1661032;85;21138;-61
2022/12/27 01:27:40;;;;;;;7.72;4.53;;;;;;;1.43;97.67;100377.34;1685321;85;21169;-60
2022/12/27 01:30:11;;;;;;;9.63;4.92;;;;;;;1.45;97.72;100379.41;1746248;80;21987;-59
2022/12/27 01:32:42;;;;;;;7.37;4.33;;;;;;;1.46;97.73;100370.31;1780080;80;21503;-61
2022/12/27 01:35:12;;;;;;;8.38;4.95;;;;;;;1.47;97.78;100359.02;1779930;80;21142;-61
2022/12/27 01:37:42;;;;;;;8.75;4.87;;;;;;;1.49;97.84;100351.63;1765345;79;21123;-61
2022/12/27 01:40:11;;;;;;;8.63;5.08;;;;;;;1.49;97.86;100347.58;1816826;79;21166;-60
2022/12/27 01:42:51;;;;;;;8.48;4.70;;;;;;;1.49;98.02;100345.73;1747626;82;21227;-58
2022/12/27 01:45:27;;;;;;;8.85;4.50;;;;;;;1.49;98.07;100338.98;1785399;79;21150;-58
2022/12/27 01:48:07;;;;;;;6.63;3.67;;;;;;;1.48;98.16;100321.58;1719547;82;21127;-58
2022/12/27 01:50:45;;;;;;;8.25;4.87;;;;;;;1.45;98.27;100324.56;1816907;79;21130;-58
2022/12/27 01:53:27;;;;;;;10.38;5.42;;;;;;;1.45;98.37;100309.72;1674574;85;21132;-57
2022/12/27 01:56:01;;;;;;;9.58;5.45;;;;;;;1.48;98.58;100308.08;1674406;85;21171;-57
2022/12/27 01:58:42;;;;;;;10.45;5.35;;;;;;;1.50;98.80;100308.79;1675484;85;21155;-58
2022/12/27 02:01:20;;;;;;;8.75;5.17;;;;;;;1.50;98.87;100296.14;1740714;82;21154;-62
2022/12/27 02:03:55;;;;;;;9.38;5.20;;;;;;;1.53;98.96;100295.86;1740874;82;21759;-61
2022/12/27 02:06:27;;;;;;;15.20;6.80;;;;;;;1.55;99.09;100295.22;1741216;82;21169;-60
2022/12/27 02:09:27;;;;;;;11.20;6.60;;;;;;;1.58;99.24;100288.68;1740734;82;21116;-61
2022/12/27 02:11:57;;;;;;;12.40;6.83;;;;;;;1.61;99.27;100278.94;1796497;79;21158;-61
2022/12/27 02:14:43;;;;;;;23.00;11.08;;;;;;;1.63;99.33;100283.70;1747793;82;21119;-60
2022/12/27 02:17:18;;;;;;;29.57;14.15;;;;;;;1.64;99.45;100280.00;1817064;79;21150;-59
2022/12/27 02:20:17;;;;;;;37.08;16.25;;;;;;;1.65;99.51;100271.41;1747455;82;21607;-59
2022/12/27 02:26:21;;;;;;;35.45;16.30;;;;;;;1.71;99.88;100268.98;1746889;82;21550;-60
2022/12/27 02:29:26;;;;;;;34.83;16.32;;;;;;;1.74;99.98;100248.44;1816954;79;21560;-59
2022/12/27 02:32:05;;;;;;;37.50;16.65;;;;;;;1.75;100.00;100244.73;1747781;82;21151;-60
2022/12/27 02:34:46;;;;;;;;;;;;;;;1.78;100.00;100242.25;1781027;81;21158;-58
2022/12/27 02:37:16;;;;;;;35.95;17.30;;;;;;;1.78;100.00;100230.09;1747161;82;20181;-59
2022/12/27 02:39:46;;;;;;;42.85;19.05;;;;;;;1.77;100.00;100225.19;1814261;79;21138;-60
2022/12/27 02:53:46;;;;;;;46.95;20.40;;;;;;;1.80;100.00;100213.24;1814739;79;21092;-58
2022/12/27 03:03:22;;;;;;;44.98;21.75;;;;;;;1.80;100.00;100189.78;1814841;79;21182;-58
2022/12/27 03:06:40;;;;;;;48.05;21.00;;;;;;;1.80;100.00;100183.53;1745532;82;21190;-59
2022/12/27 03:16:22;;;;;;;51.63;22.67;;;;;;;1.79;100.00;100172.37;1745699;82;21131;-59
2022/12/27 03:19:09;;;;;;;47.30;21.42;;;;;;;1.82;100.00;100190.98;1814726;79;21099;-60
2022/12/27 03:27:32;;;;;;;52.90;22.80;;;;;;;1.84;100.00;100188.98;1815003;79;21134;-58
2022/12/27 03:33:14;;;;;;;56.02;23.22;;;;;;;1.88;100.00;100170.14;1814797;79;21130;-61
2022/12/27 03:39:20;;;;;;;58.02;23.65;;;;;;;1.92;100.00;100172.89;1724484;82;21156;-60
2022/12/27 03:44:45;;;;;;;60.17;24.77;;;;;;;1.93;100.00;100174.59;1743318;82;21151;-64
2022/12/27 03:47:44;;;;;;;61.53;26.50;;;;;;;1.94;100.00;100168.20;1688376;83;21213;-59
2022/12/27 03:50:20;;;;;;;57.83;25.15;;;;;;;1.97;100.00;100171.13;1717103;83;21139;-58
2022/12/27 03:53:11;;;;;;;58.25;26.05;;;;;;;2.00;100.00;100174.89;1743166;82;21590;-58
2022/12/27 03:55:41;;;;;;;64.55;26.93;;;;;;;2.00;100.00;100162.23;1743148;82;21175;-59
2022/12/27 03:58:09;;;;;;;66.87;27.52;;;;;;;2.03;100.00;100155.67;1716815;83;21582;-60
2022/12/27 04:00:39;;;;;;;65.12;27.55;;;;;;;2.05;100.00;100146.42;1714532;82;21124;-59
2022/12/27 04:03:07;;;;;;;56.37;26.70;;;;;;;2.07;100.00;100140.36;1743174;82;21103;-61
2022/12/27 04:05:38;;;;;;;65.55;27.45;;;;;;;2.09;100.00;100131.61;1717218;83;21143;-60
2022/12/27 04:36:07;;;;;;;75.15;30.55;;;;;;;2.32;100.00;100105.52;1743374;82;21329;-60
2022/12/27 04:38:35;;;;;;;71.70;31.15;;;;;;;2.32;100.00;100102.31;1721635;83;21151;-60
2022/12/27 04:55:23;;;;;;;96.97;38.28;;;;;;;2.44;100.00;100079.46;1782794;80;21178;-60
2022/12/27 04:57:53;;;;;;;87.80;35.60;;;;;;;2.49;100.00;100072.24;1782672;79;21190;-61
2022/12/27 05:03:17;;;;;;;90.92;36.13;;;;;;;2.51;100.00;100060.77;1782989;80;21178;-59
2022/12/27 05:05:46;;;;;;;91.22;39.65;;;;;;;2.52;100.00;100066.02;1764266;80;21170;-60
2022/12/27 05:14:01;;;;;;;;;;;;;;;2.64;100.00;100079.34;1785318;80;21107;-60
2022/12/27 05:16:38;;;;;;;71.57;28.20;;;;;;;2.65;100.00;100078.34;1783246;80;20205;-60
2022/12/27 05:19:09;;;;;;;85.77;35.78;;;;;;;2.66;100.00;100082.74;1782781;80;21162;-59
2022/12/27 05:27:03;;;;;;;93.72;39.03;;;;;;;2.74;100.00;100078.76;1783168;80;21115;-60
2022/12/27 05:29:34;;;;;;;117.77;44.03;;;;;;;2.76;100.00;100077.59;1782951;79;21127;-61
2022/12/27 05:32:04;;;;;;;98.52;40.40;;;;;;;2.80;100.00;100076.28;1783127;80;21111;-60
2022/12/27 05:34:35;;;;;;;99.85;40.12;;;;;;;2.85;100.00;100087.48;1781978;80;21115;-60
2022/12/27 05:37:05;;;;;;;99.67;39.15;;;;;;;2.90;100.00;100088.88;1782586;80;21155;-61
2022/12/27 05:39:35;;;;;;;88.40;38.15;;;;;;;2.91;100.00;100085.16;1779035;79;21075;-60
2022/12/27 05:42:05;;;;;;;84.95;35.30;;;;;;;2.93;100.00;100084.50;1816895;78;21566;-60
2022/12/27 05:44:35;;;;;;;86.60;35.28;;;;;;;2.94;100.00;100082.99;1747585;82;21217;-60
2022/12/27 05:47:04;;;;;;;87.65;35.52;;;;;;;2.95;100.00;100081.13;1816924;79;21103;-59
2022/12/27 05:49:33;;;;;;;81.82;34.30;;;;;;;2.99;100.00;100067.64;1817143;79;21107;-61
2022/12/27 05:52:04;;;;;;;87.12;35.08;;;;;;;2.99;100.00;100074.41;1718055;82;21158;-60
2022/12/27 05:54:34;;;;;;;84.25;34.90;;;;;;;2.98;100.00;100079.47;1817021;79;21154;-60
2022/12/27 05:57:03;;;;;;;104.25;38.85;;;;;;;2.98;100.00;100074.05;1816624;79;21165;-60
2022/12/27 05:59:33;;;;;;;89.85;35.15;;;;;;;3.00;100.00;100071.54;1785384;79;21575;-61
2022/12/27 06:02:03;;;;;;;92.10;32.53;;;;;;;3.02;100.00;100072.73;1747737;82;21134;-60
2022/12/27 06:04:33;;;;;;;102.85;38.40;;;;;;;3.03;100.00;100075.79;1785813;79;21153;-61
2022/12/27 06:07:03;;;;;;;90.47;34.63;;;;;;;3.03;100.00;100071.73;1747605;82;21146;-61
2022/12/27 06:09:33;;;;;;;90.92;34.60;;;;;;;3.04;100.00;100072.92;1785977;79;21146;-62
2022/12/27 06:12:03;;;;;;;118.05;39.40;;;;;;;3.05;100.00;100070.56;1747437;82;21166;-60
2022/12/27 06:14:33;;;;;;;98.87;37.65;;;;;;;3.06;100.00;100066.00;1817051;79;21154;-59
2022/12/27 06:17:04;;;;;;;92.70;38.35;;;;;;;3.09;100.00;100062.98;1785864;79;21118;-61
2022/12/27 06:19:34;;;;;;;92.95;36.08;;;;;;;3.12;100.00;100066.22;1747508;82;21555;-61
2022/12/27 06:22:02;;;;;;;93.45;37.40;;;;;;;3.15;100.00;100072.67;1817101;79;21078;-60
2022/12/27 06:24:34;;;;;;;91.82;35.17;;;;;;;3.17;100.00;100081.98;1747066;82;21107;-60
2022/12/27 06:27:04;;;;;;;81.78;34.27;;;;;;;3.17;100.00;100071.16;1785409;79;21119;-61
2022/12/27 06:29:33;;;;;;;81.60;31.60;;;;;;;3.17;100.00;100074.71;1747618;82;21130;-61
2022/12/27 06:32:03;;;;;;;82.12;33.48;;;;;;;3.19;100.00;100081.32;1816965;79;21530;-60
2022/12/27 06:34:34;;;;;;;85.92;36.05;;;;;;;3.21;100.00;100081.16;1786718;79;21107;-61
2022/12/27 06:37:04;;;;;;;77.10;34.08;;;;;;;3.22;100.00;100080.16;1718371;82;21155;-61
2022/12/27 06:39:34;;;;;;;85.28;33.15;;;;;;;3.25;100.00;100082.55;1815565;79;21134;-60
2022/12/27 06:42:04;;;;;;;79.82;34.23;;;;;;;3.24;100.00;100087.61;1814776;79;21150;-61
2022/12/27 06:44:34;;;;;;;101.75;38.55;;;;;;;3.23;100.00;100088.12;1745468;82;21162;-62
2022/12/27 06:47:03;;;;;;;87.62;35.10;;;;;;;3.27;100.00;100088.18;1814913;79;21125;-61
2022/12/27 06:49:40;;;;;;;88.15;34.63;;;;;;;3.29;100.00;100071.78;1745451;82;21174;-63
2022/12/27 06:52:10;;;;;;;91.15;33.20;;;;;;;3.30;100.00;100083.80;1814691;79;21588;-61
2022/12/27 06:54:43;;;;;;;90.00;34.70;;;;;;;3.32;100.00;100082.29;1814848;79;21102;-61
2022/12/27 06:57:19;;;;;;;83.50;33.75;;;;;;;3.31;100.00;100081.44;1761520;79;21138;-60
2022/12/27 06:59:48;;;;;;;96.10;36.25;;;;;;;3.29;100.00;100082.10;1745419;82;21159;-61
2022/12/27 07:02:21;;;;;;;93.75;35.25;;;;;;;3.30;100.00;100078.89;1814937;79;21158;-60
2022/12/27 07:04:51;;;;;;;99.10;36.95;;;;;;;3.32;100.00;100083.14;1745497;82;21197;-63
2022/12/27 07:07:21;;;;;;;94.97;35.65;;;;;;;3.33;100.00;100086.19;1814873;79;21122;-60
2022/12/27 07:09:49;;;;;;;90.30;35.00;;;;;;;3.34;100.00;100086.53;1814511;79;21612;-62
2022/12/27 07:12:19;;;;;;;92.42;36.85;;;;;;;3.35;100.00;100080.61;1814598;79;21181;-62
2022/12/27 07:14:48;;;;;;;94.40;36.20;;;;;;;3.35;100.00;100074.70;1814638;79;21608;-62
2022/12/27 07:17:18;;;;;;;90.62;34.53;;;;;;;3.36;100.00;100071.48;1745283;82;21541;-62
2022/12/27 07:19:47;;;;;;;93.52;36.40;;;;;;;3.39;100.00;100075.22;1814573;79;21197;-62
2022/12/27 07:22:16;;;;;;;101.25;35.68;;;;;;;3.42;100.00;100069.49;1814846;79;21511;-62
2022/12/27 07:24:47;;;;;;;100.72;37.48;;;;;;;3.46;100.00;100062.74;1717398;82;21535;-61
2022/12/27 07:27:16;;;;;;;96.92;36.55;;;;;;;3.48;100.00;100066.14;1814770;79;21596;-63
2022/12/27 07:29:46;;;;;;;94.58;37.17;;;;;;;3.49;100.00;100059.72;1814814;79;21165;-62
2022/12/27 07:32:18;;;;;;;92.17;36.90;;;;;;;3.52;100.00;100051.77;1814913;79;21107;-62
2022/12/27 07:34:47;;;;;;;90.60;35.73;;;;;;;3.53;100.00;100055.67;1745364;82;21661;-62
2022/12/27 07:37:16;;;;;;;100.90;36.83;;;;;;;3.57;100.00;100056.20;1814811;79;21146;-61
2022/12/27 07:39:46;;;;;;;102.53;38.33;;;;;;;3.60;100.00;100058.08;1716767;83;21282;-62
2022/12/27 07:42:16;;;;;;;112.12;40.95;;;;;;;3.64;100.00;100052.69;1718508;83;21137;-64
2022/12/27 07:44:46;;;;;;;107.55;40.60;;;;;;;3.68;100.00;100049.14;1718463;83;21142;-61
2022/12/27 07:47:15;;;;;;;108.42;40.55;;;;;;;3.73;100.00;100049.00;1718248;83;21131;-61
2022/12/27 07:49:44;;;;;;;104.10;39.88;;;;;;;3.77;100.00;100050.37;1718539;83;21553;-63
2022/12/27 07:52:13;;;;;;;114.90;43.58;;;;;;;3.82;100.00;100053.44;1634336;86;21154;-63
2022/12/27 07:54:44;;;;;;;112.37;41.05;;;;;;;3.88;100.00;100058.72;1656072;86;21198;-63
2022/12/27 07:57:14;;;;;;;105.70;41.98;;;;;;;3.92;100.00;100060.13;1653831;82;21182;-62
2022/12/27 07:59:43;;;;;;;108.05;40.30;;;;;;;3.95;100.00;100055.73;1817123;79;21565;-64
2022/12/27 08:02:15;;;;;;;119.60;42.70;;;;;;;3.98;100.00;100051.33;1816869;79;21138;-61
2022/12/27 08:04:44;;;;;;;110.48;42.93;;;;;;;4.00;100.00;100055.23;1719544;82;21559;-62
2022/12/27 08:07:16;;;;;;;107.97;40.88;;;;;;;4.02;100.00;100044.58;1817151;79;21082;-63
2022/12/27 08:09:47;;;;;;;111.35;39.50;;;;;;;4.06;100.00;100051.36;1747455;82;21170;-63
2022/12/27 08:12:16;;;;;;;104.00;40.25;;;;;;;4.08;100.00;100043.06;1817077;78;21158;-61
2022/12/27 08:14:46;;;;;;;105.07;39.33;;;;;;;4.10;100.00;100053.23;1747536;82;21127;-64
2022/12/27 08:17:25;;;;;;;102.75;40.00;;;;;;;4.13;100.00;100051.05;1817202;79;21570;-63
2022/12/27 08:19:55;;;;;;;102.40;39.35;;;;;;;4.20;100.00;100048.52;1747663;82;21167;-62
2022/12/27 08:22:24;;;;;;;93.50;37.88;;;;;;;4.26;100.00;100042.44;1817236;79;21201;-62
2022/12/27 08:24:55;;;;;;;96.02;36.03;;;;;;;4.31;100.00;100059.06;1747800;82;21139;-61
2022/12/27 08:27:24;;;;;;;97.65;36.25;;;;;;;4.38;100.00;100048.39;1816917;79;21126;-63
2022/12/27 08:29:54;;;;;;;99.47;37.98;;;;;;;4.42;100.00;100041.11;1778269;80;21116;-63
2022/12/27 08:32:23;;;;;;;98.15;41.00;;;;;;;4.46;100.00;100040.27;1747235;82;21542;-62
2022/12/27 08:34:53;;;;;;;91.35;38.20;;;;;;;4.48;100.00;100038.74;1816881;79;21162;-62
2022/12/27 08:37:22;;;;;;;106.17;37.25;;;;;;;4.50;100.00;100042.14;1747155;82;21221;-62
2022/12/27 08:39:52;;;;;;;88.05;35.73;;;;;;;4.53;100.00;100023.66;1812620;79;21147;-62
2022/12/27 08:42:24;;;;;;;91.37;37.88;;;;;;;4.57;100.00;100035.91;1767022;81;21120;-62
2022/12/27 08:44:54;;;;;;;95.53;35.45;;;;;;;4.57;100.00;100041.33;1716636;82;21120;-62
2022/12/27 08:47:24;;;;;;;92.17;33.23;;;;;;;4.60;100.00;100034.72;1806007;79;21135;-63
2022/12/27 08:49:56;;;;;;;98.35;35.50;;;;;;;4.63;100.00;100030.31;1806285;79;21080;-64
2022/12/27 08:52:25;;;;;;;93.70;35.15;;;;;;;4.67;100.00;100035.74;1737310;82;21158;-62
2022/12/27 08:54:54;;;;;;;92.12;34.85;;;;;;;4.71;100.00;100028.96;1783821;79;21214;-62
2022/12/27 08:57:23;;;;;;;91.30;33.42;;;;;;;4.73;100.00;100022.34;1767834;81;21123;-61
2022/12/27 08:59:53;;;;;;;97.25;35.38;;;;;;;4.74;100.00;100009.63;1731350;82;21139;-64
2022/12/27 09:02:23;;;;;;;96.37;32.80;;;;;;;4.77;100.00;100005.22;1792475;79;21153;-63
2022/12/27 09:04:55;;;;;;;87.90;31.62;;;;;;;4.82;100.00;100004.70;1774660;81;21111;-63
2022/12/27 09:07:23;;;;;;;85.67;31.40;;;;;;;4.88;100.00;99997.23;1774373;80;21178;-62
2022/12/27 09:09:52;;;;;;;76.50;31.70;;;;;;;4.91;100.00;99992.82;1774401;81;21172;-67
2022/12/27 09:12:21;;;;;;;93.80;35.92;;;;;;;4.94;100.00;99989.77;1774257;81;21180;-63
2022/12/27 09:14:50;;;;;;;91.75;36.48;;;;;;;4.96;100.00;99978.22;1774290;81;21638;-63
2022/12/27 09:17:20;;;;;;;108.10;39.98;;;;;;;4.99;100.00;99971.09;1774248;81;21112;-62
2022/12/27 09:19:49;;;;;;;124.87;43.73;;;;;;;5.02;100.00;99977.53;1774074;81;21171;-62
2022/12/27 09:22:20;;;;;;;128.87;45.25;;;;;;;5.05;100.00;99978.55;1774318;81;21166;-62
2022/12/27 09:24:50;;;;;;;113.55;41.45;;;;;;;5.10;100.00;99979.72;1774194;81;21123;-63
2022/12/27 09:27:19;;;;;;;119.97;40.95;;;;;;;5.13;100.00;99979.88;1774241;79;21135;-62
2022/12/27 09:29:49;;;;;;;94.17;38.25;;;;;;;5.15;100.00;99975.64;1763168;81;21116;-63
2022/12/27 09:32:18;;;;;;;112.22;43.65;;;;;;;5.17;100.00;99976.31;1774426;80;21100;-62
2022/12/27 09:34:48;;;;;;;102.67;39.90;;;;;;;5.21;100.00;99974.47;1774231;80;21097;-63
2022/12/27 09:37:18;;;;;;;107.03;38.10;;;;;;;5.24;100.00;99983.63;1773998;81;21570;-63
2022/12/27 09:39:48;;;;;;;103.45;37.70;;;;;;;5.27;100.00;99973.77;1773823;80;21109;-62
2022/12/27 09:42:35;;;;;;;99.42;36.40;;;;;;;5.30;100.00;99984.28;1773905;81;21164;-63
2022/12/27 09:45:19;;;;;;;101.35;36.48;;;;;;;5.33;100.00;99985.81;1771232;81;21132;-63
2022/12/27 09:48:05;;;;;;;104.78;38.95;;;;;;;5.33;100.00;99993.45;1774243;80;21206;-64
2022/12/27 09:50:54;;;;;;;114.50;39.95;;;;;;;5.33;100.00;99985.30;1774184;81;21158;-64
2022/12/27 09:53:34;;;;;;;95.03;37.35;;;;;;;5.34;100.00;99982.92;1774190;81;21190;-64
2022/12/27 09:56:04;;;;;;;98.25;37.28;;;;;;;5.35;100.00;99983.25;1783157;79;21579;-62
2022/12/27 09:58:45;;;;;;;94.70;36.40;;;;;;;5.38;100.00;99979.34;1783814;79;21127;-63
2022/12/27 10:01:31;;;;;;;97.72;36.53;;;;;;;5.39;100.00;99974.25;1767105;81;21107;-64
2022/12/27 10:04:02;;;;;;;116.95;40.92;;;;;;;5.43;100.00;99973.38;1767511;81;21662;-63
2022/12/27 10:06:56;;;;;;;96.17;37.33;;;;;;;5.46;100.00;99967.59;1767833;81;21147;-63
2022/12/27 10:09:51;;;;;;;101.53;38.90;;;;;;;5.47;100.00;99969.30;1767758;80;21154;-63
2022/12/27 10:12:54;;;;;;;94.05;36.75;;;;;;;5.50;100.00;99972.51;1767589;81;21602;-64
2022/12/27 10:15:37;;;;;;;108.17;40.20;;;;;;;5.56;100.00;99968.23;1747017;81;21171;-63
2022/12/27 10:18:44;;;;;;;85.75;32.95;;;;;;;5.60;100.00;99973.66;1767589;81;21083;-64
2022/12/27 10:21:22;;;;;;;95.05;37.85;;;;;;;5.63;100.00;99971.94;1767518;80;21131;-63
2022/12/27 10:24:17;;;;;;;102.05;35.68;;;;;;;5.67;100.00;99970.05;1767830;81;21079;-63
2022/12/27 10:26:46;;;;;;;92.37;37.42;;;;;;;5.68;100.00;99970.39;1767245;81;21096;-63
2022/12/27 10:29:20;;;;;;;98.22;38.88;;;;;;;5.69;100.00;99977.52;1767673;81;21510;-65
2022/12/27 10:31:49;;;;;;;98.62;36.08;;;;;;;5.71;100.00;99970.55;1767699;81;21167;-63
2022/12/27 10:34:23;;;;;;;101.62;36.60;;;;;;;5.74;100.00;99971.55;1774426;79;21092;-63
2022/12/27 10:36:52;;;;;;;88.78;36.00;;;;;;;5.72;100.00;99970.88;1774434;81;21159;-64
2022/12/27 10:39:27;;;;;;;96.63;37.15;;;;;;;5.73;100.00;99970.70;1774456;81;21570;-64
2022/12/27 10:42:37;;;;;;;95.20;36.90;;;;;;;5.75;100.00;99966.45;1787559;79;21521;-62
2022/12/27 10:45:33;;;;;;;86.80;35.75;;;;;;;5.77;100.00;99971.20;1788069;80;21134;-61
2022/12/27 10:48:18;;;;;;;80.53;29.80;;;;;;;5.80;100.00;99959.12;1788060;80;21590;-64
2022/12/27 10:51:02;;;;;;;79.45;31.23;;;;;;;5.82;100.00;99958.44;1788314;79;21133;-62
2022/12/27 10:53:48;;;;;;;88.90;32.00;;;;;;;5.85;100.00;99966.23;1787983;80;21203;-63
2022/12/27 10:56:27;;;;;;;85.22;32.25;;;;;;;5.86;100.00;99953.85;1787861;80;21151;-64
2022/12/27 10:59:25;;;;;;;79.72;31.60;;;;;;;5.88;100.00;99957.75;1788074;79;21079;-63
2022/12/27 11:02:16;;;;;;;92.82;31.57;;;;;;;5.92;100.00;99953.17;1767574;80;21150;-64
2022/12/27 11:04:59;;;;;;;92.67;32.75;;;;;;;5.94;100.00;99947.55;1788179;79;21616;-63
2022/12/27 11:07:30;;;;;;;85.05;33.70;;;;;;;5.97;100.00;99946.68;1788210;80;21167;-63
2022/12/27 11:10:14;;;;;;;94.77;36.20;;;;;;;6.00;100.00;99934.09;1788007;80;21083;-63
2022/12/27 11:13:03;;;;;;;86.35;34.45;;;;;;;6.05;100.00;99940.34;1788145;79;21127;-63
2022/12/27 11:15:36;;;;;;;82.70;31.55;;;;;;;6.09;100.00;99938.11;1787446;79;21156;-64
2022/12/27 11:18:17;;;;;;;88.60;31.97;;;;;;;6.12;100.00;99930.95;1788110;80;21224;-63
2022/12/27 11:20:53;;;;;;;84.37;32.53;;;;;;;6.14;100.00;99937.06;1788156;80;21174;-62
2022/12/27 11:23:35;;;;;;;87.40;32.38;;;;;;;6.16;100.00;99937.72;1788281;80;21087;-64
2022/12/27 11:26:05;;;;;;;81.22;30.92;;;;;;;6.16;100.00;99939.93;1788029;80;21568;-69
2022/12/27 11:28:45;;;;;;;101.55;37.08;;;;;;;6.16;100.00;99937.20;1788137;79;21543;-64
2022/12/27 11:31:19;;;;;;;80.60;30.70;;;;;;;6.18;100.00;99935.16;1770572;80;21170;-62
2022/12/27 11:33:52;;;;;;;100.47;34.00;;;;;;;6.19;100.00;99930.05;1787256;79;21510;-65
2022/12/27 11:36:40;;;;;;;93.35;32.70;;;;;;;6.19;100.00;99927.33;1787124;80;21155;-63
2022/12/27 11:39:45;;;;;;;94.22;35.98;;;;;;;6.22;100.00;99922.03;1788250;80;21138;-62
2022/12/27 11:42:37;;;;;;;106.27;38.58;;;;;;;6.25;100.00;99927.12;1774800;80;21609;-62
2022/12/27 11:45:27;;;;;;;98.85;36.23;;;;;;;6.22;100.00;99915.23;1774452;79;21166;-63
2022/12/27 11:48:07;;;;;;;89.72;32.03;;;;;;;6.21;100.00;99920.34;1774119;80;21124;-63
2022/12/27 11:51:03;;;;;;;100.27;34.00;;;;;;;6.20;100.00;99919.50;1763375;81;21151;-62
2022/12/27 11:54:15;;;;;;;94.60;33.38;;;;;;;6.22;100.00;99923.40;1774008;81;21159;-62
2022/12/27 11:56:49;;;;;;;90.50;37.58;;;;;;;6.21;100.00;99922.55;1774441;80;21154;-62
2022/12/27 11:59:39;;;;;;;101.58;40.60;;;;;;;6.22;100.00;99935.64;1773995;81;21107;-63
2022/12/27 12:02:38;;;;;;;100.27;38.88;;;;;;;6.19;100.00;99937.36;1774258;81;21174;-63
2022/12/27 12:05:31;;;;;;;104.67;38.73;;;;;;;6.17;100.00;99933.97;1774170;80;21111;-63
2022/12/27 12:08:30;;;;;;;91.30;32.75;;;;;;;6.17;100.00;99938.05;1774352;80;21167;-62
2022/12/27 12:11:27;;;;;;;97.17;33.13;;;;;;;6.18;100.00;99933.80;1774288;81;21115;-65
2022/12/27 12:14:17;;;;;;;93.77;30.03;;;;;;;6.18;100.00;99928.87;1774434;81;21080;-64
2022/12/27 12:17:06;;;;;;;90.67;30.35;;;;;;;6.18;100.00;99920.70;1774294;79;21306;-63
2022/12/27 12:20:12;;;;;;;79.05;29.40;;;;;;;6.20;100.00;99917.30;1774119;79;21155;-64
2022/12/27 12:23:08;;;;;;;89.83;30.25;;;;;;;6.21;100.00;99915.75;1704190;84;21194;-61
2022/12/27 12:25:58;;;;;;;84.20;29.55;;;;;;;6.21;100.00;99929.87;1704173;83;21570;-68
2022/12/27 12:29:02;;;;;;;77.20;29.30;;;;;;;6.22;100.00;99925.61;1758299;80;21100;-63
2022/12/27 12:32:21;;;;;;;82.97;30.90;;;;;;;6.24;100.00;99937.16;1774228;80;21135;-64
2022/12/27 12:35:34;;;;;;;80.07;29.02;;;;;;;6.25;100.00;99933.92;1774639;81;21595;-61
2022/12/27 12:38:22;;;;;;;87.25;32.78;;;;;;;6.24;100.00;99945.83;1774316;80;21108;-63
2022/12/27 12:41:20;;;;;;;75.80;28.80;;;;;;;6.22;100.00;99934.28;1777947;80;21226;-63
2022/12/27 12:44:11;;;;;;;85.75;31.27;;;;;;;6.23;100.00;99935.45;1788056;80;21506;-61
2022/12/27 12:47:06;;;;;;;95.85;34.00;;;;;;;6.25;100.00;99931.20;1788112;79;21600;-63
2022/12/27 12:49:44;;;;;;;98.82;36.25;;;;;;;6.26;100.00;99924.73;1788025;79;21593;-63
2022/12/27 12:52:31;;;;;;;101.40;35.78;;;;;;;6.28;100.00;99926.75;1788253;80;21167;-63
2022/12/27 12:55:23;;;;;;;97.15;33.70;;;;;;;6.29;100.00;99928.44;1788650;80;21149;-64
2022/12/27 12:58:33;;;;;;;91.95;33.88;;;;;;;6.27;100.00;99926.42;1788175;79;21110;-61
2022/12/27 13:01:34;;;;;;;89.17;34.48;;;;;;;6.33;100.00;99928.41;1788304;80;21218;-63
2022/12/27 13:04:38;;;;;;;97.62;32.93;;;;;;;6.37;100.00;99939.27;1788401;80;21147;-62
2022/12/27 13:07:44;;;;;;;90.87;30.75;;;;;;;6.34;100.00;99935.03;1787941;80;21182;-63
2022/12/27 13:10:40;;;;;;;86.78;30.35;;;;;;;6.31;100.00;99939.99;1787971;80;21130;-60
2022/12/27 13:13:38;;;;;;;76.53;29.45;;;;;;;6.30;100.00;99941.86;1788134;80;21114;-61
2022/12/27 13:16:50;;;;;;;81.28;30.77;;;;;;;6.31;100.00;99949.52;1788283;80;21103;-58
2022/12/27 16:41:59;;;;;;;17.15;5.03;;;;;;;4.35;93.31;100143.65;1829841;77;24607;-58
2022/12/27 16:45:01;;;;;;;5.15;3.60;;;;;;;4.31;94.03;100163.47;1797554;77;21603;-62
2022/12/27 16:47:56;;;;;;;6.92;3.20;;;;;;;4.30;93.97;100166.34;1745215;81;21651;-62
2022/12/27 16:50:46;;;;;;;9.13;4.05;;;;;;;4.28;93.52;100184.64;1818558;78;21107;-64
2022/12/27 16:53:37;;;;;;;6.30;2.87;;;;;;;4.27;93.43;100188.37;1820428;79;21138;-63
2022/12/27 16:56:28;;;;;;;9.55;4.25;;;;;;;4.25;93.27;100185.81;1819779;78;21138;-64
2022/12/27 16:58:57;;;;;;;10.45;4.05;;;;;;;4.23;93.11;100187.84;1820207;78;21145;-62
2022/12/27 17:01:37;;;;;;;10.85;3.70;;;;;;;4.22;92.78;100205.12;1820361;79;21147;-63
2022/12/27 17:04:06;;;;;;;8.55;3.62;;;;;;;4.20;92.11;100192.23;1820447;78;21095;-62